Time;durP1;ratioP1;P1;durP2;ratioP2;P2;SDS_P1;SDS_P2;PMS_P1;PMS_P2;Temp;Humidity;BMP_temperature;BMP_pressure;BME280_temperature;BME280_humidity;BME280_pressure;Samples;Min_cycle;Max_cycle;Signal;HPM_P1;HPM_P2
2023/07/01 12:30:15;;;;;;;0.70;0.40;;;24.80;99.90;;;;;;4953472;23;20327;-74
2023/07/01 12:32:41;;;;;;;3.08;0.95;;;24.80;99.90;;;;;;4940019;28;20208;-71
2023/07/01 12:35:08;;;;;;;1.58;0.47;;;24.90;99.90;;;;;;4954816;29;20258;-73
2023/07/01 12:37:37;;;;;;;0.70;0.40;;;24.50;99.90;;;;;;4944107;28;20319;-71
2023/07/01 12:40:04;;;;;;;2.58;1.50;;;24.10;99.90;;;;;;4941499;29;20200;-72
2023/07/01 12:42:31;;;;;;;0.90;0.60;;;24.00;99.90;;;;;;4956375;28;20212;-71
2023/07/01 12:44:58;;;;;;;1.80;0.60;;;23.80;99.90;;;;;;4956211;28;20200;-71
2023/07/01 12:47:26;;;;;;;1.02;0.40;;;23.50;99.90;;;;;;4955759;28;20593;-72
2023/07/01 12:49:53;;;;;;;0.75;0.40;;;23.20;99.90;;;;;;4955987;28;20208;-72
2023/07/01 12:52:20;;;;;;;1.25;0.55;;;23.10;99.90;;;;;;4956195;28;20681;-73
2023/07/01 12:54:47;;;;;;;0.60;0.30;;;23.10;99.90;;;;;;4955817;28;20228;-72
2023/07/01 12:57:15;;;;;;;0.50;0.40;;;23.20;99.90;;;;;;4955654;28;20219;-72
2023/07/01 12:59:45;;;;;;;0.93;0.52;;;23.50;99.90;;;;;;4954853;28;20208;-73
2023/07/01 13:02:12;;;;;;;1.48;0.40;;;23.60;99.90;;;;;;4956187;28;20218;-73
2023/07/01 13:04:41;;;;;;;1.95;0.38;;;23.60;99.90;;;;;;4956193;28;20230;-71
2023/07/01 13:07:17;;;;;;;1.08;0.30;;;23.70;99.90;;;;;;4946854;28;20707;-72
2023/07/01 13:09:50;;;;;;;0.50;0.40;;;24.10;99.90;;;;;;4936736;29;20209;-72
2023/07/01 13:12:19;;;;;;;0.73;0.30;;;24.30;99.90;;;;;;4955891;28;20607;-73
2023/07/01 13:14:46;;;;;;;0.50;0.30;;;24.30;99.90;;;;;;4955547;28;20235;-74
2023/07/01 13:17:13;;;;;;;0.30;0.30;;;24.50;99.90;;;;;;4946180;28;20599;-73
2023/07/01 13:19:41;;;;;;;0.57;0.40;;;24.70;99.90;;;;;;4936493;29;20208;-72
2023/07/01 13:22:08;;;;;;;1.05;0.30;;;24.80;99.90;;;;;;4955229;29;20558;-71
2023/07/01 13:24:40;;;;;;;0.52;0.40;;;25.00;99.90;;;;;;4955318;28;20210;-73
2023/07/01 13:27:11;;;;;;;1.50;0.60;;;25.20;99.90;;;;;;4955410;28;20228;-71
2023/07/01 13:29:38;;;;;;;0.20;0.20;;;25.30;99.90;;;;;;4955501;28;20215;-72
2023/07/01 13:32:06;;;;;;;1.27;0.50;;;25.40;99.90;;;;;;4955487;28;20214;-71
2023/07/01 13:34:39;;;;;;;0.40;0.30;;;25.20;99.90;;;;;;4955288;28;20263;-73
2023/07/01 13:37:10;;;;;;;0.40;0.30;;;25.30;99.90;;;;;;4955527;28;20235;-72
2023/07/01 13:39:42;;;;;;;1.88;0.40;;;24.60;99.90;;;;;;4955285;28;20216;-72
2023/07/01 13:42:10;;;;;;;1.85;0.40;;;24.10;99.90;;;;;;4951463;28;20692;-74
2023/07/01 13:44:39;;;;;;;0.75;0.50;;;23.50;99.90;;;;;;4952591;29;20219;-72
2023/07/01 13:47:08;;;;;;;2.40;0.52;;;23.10;99.90;;;;;;4946130;28;20311;-73
2023/07/01 13:49:35;;;;;;;0.55;0.40;;;22.90;99.90;;;;;;4937731;29;20679;-74
2023/07/01 13:52:03;;;;;;;1.00;0.40;;;22.80;99.90;;;;;;4950890;29;20637;-73
2023/07/01 13:54:31;;;;;;;0.88;0.30;;;22.80;99.90;;;;;;4946855;28;20205;-72
2023/07/01 13:57:00;;;;;;;1.63;0.47;;;23.00;99.90;;;;;;4967529;28;20213;-69
2023/07/01 13:59:30;;;;;;;2.10;0.50;;;23.30;99.90;;;;;;4954555;29;20295;-75
2023/07/01 14:02:01;;;;;;;0.70;0.38;;;23.70;99.90;;;;;;4951505;28;20228;-72
2023/07/01 14:04:31;;;;;;;7.07;3.55;;;23.90;99.90;;;;;;4934835;29;20632;-72
2023/07/01 14:06:58;;;;;;;1.40;0.50;;;24.10;99.90;;;;;;4942357;29;20644;-70
2023/07/01 14:09:27;;;;;;;0.90;0.40;;;24.40;99.90;;;;;;4934567;29;20291;-72
2023/07/01 14:11:56;;;;;;;0.68;0.40;;;24.50;99.90;;;;;;4946737;29;20693;-72
2023/07/01 14:14:26;;;;;;;1.92;0.40;;;24.60;99.90;;;;;;4934441;29;20215;-70
2023/07/01 14:16:55;;;;;;;0.77;0.50;;;24.40;99.90;;;;;;4941447;29;20663;-70
2023/07/01 14:19:22;;;;;;;0.90;0.40;;;24.20;99.90;;;;;;4934281;29;20208;-69
2023/07/01 14:21:53;;;;;;;0.98;0.50;;;24.10;99.90;;;;;;4947581;29;20908;-70
2023/07/01 14:24:23;;;;;;;0.90;0.45;;;24.00;99.90;;;;;;4953608;28;20219;-71
2023/07/01 14:26:52;;;;;;;2.80;0.73;;;24.10;99.90;;;;;;4953291;28;20236;-71
2023/07/01 14:29:20;;;;;;;1.10;0.50;;;24.20;99.90;;;;;;4953448;28;20216;-70
2023/07/01 14:31:48;;;;;;;1.20;0.50;;;24.00;99.90;;;;;;4952697;28;20295;-72
2023/07/01 14:34:16;;;;;;;0.57;0.40;;;23.50;99.90;;;;;;4953352;28;20219;-71
2023/07/01 14:36:43;;;;;;;1.33;0.40;;;23.20;99.90;;;;;;4953045;29;20299;-73
2023/07/01 14:39:10;;;;;;;1.33;0.30;;;22.90;99.90;;;;;;4953142;28;20245;-71
2023/07/01 14:41:38;;;;;;;3.17;0.45;;;22.80;99.90;;;;;;4954399;28;20260;-74
2023/07/01 14:44:07;;;;;;;1.73;0.70;;;22.40;99.90;;;;;;4954324;28;20606;-73
2023/07/01 14:46:37;;;;;;;0.70;0.32;;;22.00;99.90;;;;;;4954129;28;20224;-73
2023/07/01 14:49:05;;;;;;;0.85;0.40;;;21.90;99.90;;;;;;4954724;28;20250;-70
2023/07/01 14:51:32;;;;;;;0.55;0.30;;;22.00;99.90;;;;;;4954648;28;20236;-71
2023/07/01 14:53:59;;;;;;;1.30;0.20;;;22.10;99.90;;;;;;4954301;28;20208;-73
2023/07/01 14:56:27;;;;;;;0.80;0.40;;;22.30;99.90;;;;;;4953532;28;20242;-71
2023/07/01 14:58:54;;;;;;;2.28;0.40;;;22.50;99.90;;;;;;4954350;28;20565;-71
2023/07/01 15:01:22;;;;;;;0.60;0.50;;;22.80;99.90;;;;;;4954424;28;20283;-73
2023/07/01 15:03:51;;;;;;;1.60;0.43;;;22.90;99.90;;;;;;4954768;28;20208;-72
2023/07/01 15:06:17;;;;;;;1.08;0.30;;;23.00;99.90;;;;;;4954047;28;20318;-72
2023/07/01 15:08:46;;;;;;;2.03;0.40;;;22.90;99.90;;;;;;4954253;28;20212;-72
2023/07/01 15:11:14;;;;;;;0.90;0.43;;;22.90;99.90;;;;;;4954211;28;20196;-73
2023/07/01 15:13:40;;;;;;;0.40;0.30;;;23.00;99.90;;;;;;4954231;28;20204;-72
2023/07/01 15:16:08;;;;;;;2.22;0.50;;;23.00;99.90;;;;;;4953713;28;20695;-73
2023/07/01 15:18:36;;;;;;;0.85;0.40;;;23.20;99.90;;;;;;4954196;28;20573;-73
2023/07/01 15:21:05;;;;;;;2.58;0.40;;;23.20;99.90;;;;;;4954507;28;20197;-73
2023/07/01 15:23:32;;;;;;;1.70;0.50;;;23.20;99.90;;;;;;4957047;28;20694;-72
2023/07/01 15:25:58;;;;;;;1.38;0.50;;;23.00;99.90;;;;;;4957379;28;20224;-73
2023/07/01 15:28:25;;;;;;;1.30;0.43;;;22.80;99.90;;;;;;4938739;28;20209;-72
2023/07/01 15:30:52;;;;;;;0.55;0.47;;;22.80;99.90;;;;;;4939946;29;20205;-74
2023/07/01 15:33:19;;;;;;;1.50;0.50;;;22.50;99.90;;;;;;4957641;28;20299;-71
2023/07/01 15:35:46;;;;;;;1.15;0.40;;;22.50;99.90;;;;;;4957448;28;20245;-71
2023/07/01 15:38:15;;;;;;;1.58;0.40;;;22.40;99.90;;;;;;4940218;28;20668;-70
2023/07/01 15:40:42;;;;;;;2.45;0.70;;;22.10;99.90;;;;;;4938374;29;20208;-71
2023/07/01 15:43:09;;;;;;;1.20;0.60;;;22.00;99.90;;;;;;4955358;29;20208;-73
2023/07/01 15:45:36;;;;;;;1.27;0.52;;;22.10;99.90;;;;;;4957262;28;20214;-76
2023/07/01 15:48:03;;;;;;;2.38;0.63;;;22.20;99.90;;;;;;4957388;28;20208;-75
2023/07/01 15:50:30;;;;;;;0.50;0.38;;;22.20;99.90;;;;;;4957254;28;20214;-71
2023/07/01 15:52:57;;;;;;;1.40;0.50;;;22.10;99.90;;;;;;4956953;28;20689;-75
2023/07/01 15:55:25;;;;;;;2.60;0.63;;;22.00;99.90;;;;;;4957231;28;20228;-76
2023/07/01 15:57:51;;;;;;;1.65;0.70;;;22.00;99.90;;;;;;4957083;28;20299;-73
2023/07/01 16:00:19;;;;;;;0.45;0.40;;;21.90;99.90;;;;;;4957132;28;20226;-75
2023/07/01 16:02:46;;;;;;;1.02;0.52;;;21.90;99.90;;;;;;4956557;28;20207;-72
2023/07/01 16:05:14;;;;;;;2.60;0.45;;;21.80;99.90;;;;;;4956819;28;20208;-73
2023/07/01 16:08:01;;;;;;;0.73;0.40;;;21.80;99.90;;;;;;4957265;28;20239;-77
2023/07/01 16:10:30;;;;;;;0.95;0.50;;;21.80;99.90;;;;;;4937979;29;20557;-74
2023/07/01 16:13:00;;;;;;;0.80;0.50;;;21.70;99.90;;;;;;4954147;29;20214;-74
2023/07/01 16:15:31;;;;;;;0.90;0.50;;;21.60;99.90;;;;;;4956674;28;20760;-74
2023/07/01 16:18:26;;;;;;;3.08;0.70;;;21.10;99.90;;;;;;4956745;28;20212;-74
2023/07/01 16:21:04;;;;;;;0.43;0.40;;;20.60;99.90;;;;;;4956709;28;20215;-73
2023/07/01 16:23:32;;;;;;;0.30;0.30;;;20.30;99.90;;;;;;4952877;29;20559;-73
2023/07/01 16:26:05;;;;;;;0.82;0.50;;;19.80;99.90;;;;;;4956706;28;20258;-73
2023/07/01 16:28:41;;;;;;;0.60;0.43;;;19.60;99.90;;;;;;4937660;29;20209;-74
2023/07/01 16:31:09;;;;;;;1.77;0.60;;;19.30;99.90;;;;;;4938041;29;20216;-74
2023/07/01 16:33:36;;;;;;;1.38;0.57;;;19.30;99.90;;;;;;4956599;28;20240;-74
2023/07/01 16:36:19;;;;;;;2.67;0.52;;;19.30;99.90;;;;;;4956022;28;20791;-76
2023/07/01 16:38:46;;;;;;;1.08;0.60;;;19.30;99.90;;;;;;4956153;28;20212;-73
2023/07/01 16:41:17;;;;;;;0.98;0.60;;;19.30;99.90;;;;;;4956150;28;20204;-72
2023/07/01 16:43:46;;;;;;;1.17;0.77;;;19.30;99.90;;;;;;4955783;28;20204;-75
2023/07/01 16:46:14;;;;;;;0.88;0.50;;;19.40;99.90;;;;;;4955737;28;20232;-73
2023/07/01 16:48:45;;;;;;;0.90;0.60;;;19.40;99.90;;;;;;4956060;28;20208;-74
2023/07/01 16:51:15;;;;;;;1.75;0.60;;;19.40;99.90;;;;;;4956106;28;20212;-73
2023/07/01 16:53:43;;;;;;;0.63;0.50;;;19.30;99.90;;;;;;4956277;28;20215;-73
2023/07/01 16:56:12;;;;;;;0.60;0.50;;;19.40;99.90;;;;;;4955742;28;20236;-74
2023/07/01 16:58:44;;;;;;;0.50;0.50;;;19.60;99.90;;;;;;4937105;29;20216;-73
2023/07/01 17:01:12;;;;;;;0.98;0.60;;;19.70;99.90;;;;;;4936690;29;20690;-74
2023/07/01 17:03:40;;;;;;;2.53;0.80;;;19.90;99.90;;;;;;4955533;29;20203;-72
2023/07/01 17:06:36;;;;;;;2.55;0.80;;;19.90;99.90;;;;;;4956052;28;20327;-73
2023/07/01 17:09:06;;;;;;;1.85;0.68;;;20.20;99.90;;;;;;4955793;28;20266;-76
2023/07/01 17:11:44;;;;;;;1.17;0.80;;;20.30;99.90;;;;;;4955850;28;20212;-73
2023/07/01 17:14:32;;;;;;;1.40;0.70;;;20.30;99.90;;;;;;4955700;28;20218;-73
2023/07/01 17:17:00;;;;;;;1.30;0.82;;;20.40;99.90;;;;;;4955130;28;20706;-73
2023/07/01 17:19:27;;;;;;;1.77;0.90;;;20.50;99.90;;;;;;4955565;28;20570;-74
2023/07/01 17:21:54;;;;;;;1.42;0.73;;;20.60;99.90;;;;;;4955460;28;20218;-73
2023/07/01 17:24:20;;;;;;;4.15;1.00;;;20.60;99.90;;;;;;4955512;28;20663;-71
2023/07/01 17:26:47;;;;;;;1.83;1.05;;;20.60;99.90;;;;;;4955972;28;20246;-73
2023/07/01 17:29:15;;;;;;;1.88;1.00;;;20.70;99.90;;;;;;4955768;28;20216;-72
2023/07/01 17:31:42;;;;;;;1.27;0.90;;;20.80;99.90;;;;;;4955547;28;20218;-73
2023/07/01 17:34:13;;;;;;;1.00;0.90;;;20.80;99.90;;;;;;4955954;28;20279;-74
2023/07/01 17:36:40;;;;;;;3.28;1.80;;;20.80;99.90;;;;;;4955275;28;20244;-73
2023/07/01 17:39:06;;;;;;;5.78;1.73;;;20.80;99.90;;;;;;4955247;28;20208;-74
2023/07/01 17:41:33;;;;;;;1.17;0.88;;;20.70;99.90;;;;;;4955691;28;20291;-73
2023/07/01 17:44:02;;;;;;;3.13;1.83;;;20.60;99.90;;;;;;4955389;28;20210;-73
2023/07/01 17:46:30;;;;;;;2.17;1.17;;;20.60;99.90;;;;;;4955096;28;20232;-73
2023/07/01 17:48:57;;;;;;;1.55;0.80;;;20.50;99.90;;;;;;4955395;28;20294;-73
2023/07/01 17:51:24;;;;;;;1.98;0.70;;;20.40;99.90;;;;;;4955227;28;20208;-74
2023/07/01 17:53:51;;;;;;;3.17;1.00;;;20.40;99.90;;;;;;4955380;28;20616;-74
2023/07/01 17:56:17;;;;;;;4.70;1.00;;;20.30;99.90;;;;;;4955132;28;20330;-73
2023/07/01 17:58:44;;;;;;;1.83;0.80;;;20.30;99.90;;;;;;4955113;28;20215;-74
2023/07/01 18:01:16;;;;;;;1.70;0.88;;;20.30;99.90;;;;;;4955121;28;20552;-73
2023/07/01 18:03:44;;;;;;;2.50;0.63;;;20.40;99.90;;;;;;4952282;28;20295;-73
2023/07/01 18:06:11;;;;;;;5.43;1.27;;;20.20;99.90;;;;;;4952613;29;20249;-73
2023/07/01 18:08:38;;;;;;;1.90;0.80;;;20.30;99.90;;;;;;4955082;28;20214;-74
2023/07/01 18:11:05;;;;;;;1.25;0.95;;;20.30;99.90;;;;;;4954539;28;20559;-75
2023/07/01 18:13:32;;;;;;;2.63;1.42;;;20.40;99.90;;;;;;4954361;28;20208;-74
2023/07/01 18:15:59;;;;;;;1.88;1.17;;;20.20;99.90;;;;;;4954185;28;20243;-74
2023/07/01 18:18:25;;;;;;;1.98;1.20;;;19.90;99.90;;;;;;4954979;28;20566;-75
2023/07/01 18:20:54;;;;;;;3.97;1.33;;;19.70;99.90;;;;;;4954851;28;20208;-74
2023/07/01 18:23:21;;;;;;;2.47;1.30;;;19.20;99.90;;;;;;4953385;28;20207;-74
2023/07/01 18:25:48;;;;;;;5.50;1.70;;;19.00;99.90;;;;;;4949795;28;20604;-74
2023/07/01 18:28:15;;;;;;;3.90;1.17;;;19.00;99.90;;;;;;4944369;28;20211;-74
2023/07/01 18:30:41;;;;;;;3.58;1.20;;;19.00;99.90;;;;;;4949265;29;20208;-75
2023/07/01 18:33:08;;;;;;;4.60;1.42;;;19.00;99.90;;;;;;4947143;28;20212;-74
2023/07/01 18:35:36;;;;;;;2.58;1.35;;;19.00;99.90;;;;;;4949638;28;20210;-74
2023/07/01 18:38:05;;;;;;;2.45;1.30;;;19.10;99.90;;;;;;4948236;28;20255;-73
2023/07/01 18:40:31;;;;;;;1.88;1.30;;;19.10;99.90;;;;;;4948594;28;20656;-74
2023/07/01 18:42:58;;;;;;;3.17;1.40;;;19.20;99.90;;;;;;4941552;29;20215;-74
2023/07/01 18:45:25;;;;;;;2.30;1.08;;;19.20;99.90;;;;;;4951803;29;20211;-74
2023/07/01 18:47:52;;;;;;;2.05;1.20;;;19.10;99.90;;;;;;4951118;28;20682;-75
2023/07/01 18:50:18;;;;;;;2.15;1.35;;;19.20;99.90;;;;;;4952478;28;20207;-74
2023/07/01 18:52:45;;;;;;;2.40;1.30;;;19.10;99.90;;;;;;4948159;28;20218;-74
2023/07/01 18:55:13;;;;;;;3.28;1.50;;;19.00;99.90;;;;;;4953228;28;20216;-74
2023/07/01 18:57:40;;;;;;;4.30;1.10;;;19.00;99.90;;;;;;4941558;29;20232;-74
2023/07/01 19:00:08;;;;;;;4.20;1.27;;;19.00;99.90;;;;;;4947565;29;20212;-74
2023/07/01 19:02:35;;;;;;;2.42;1.13;;;19.00;99.90;;;;;;4948936;28;20218;-73
2023/07/01 19:05:04;;;;;;;5.30;1.40;;;19.00;99.90;;;;;;4955709;28;20205;-73
2023/07/01 19:07:31;;;;;;;3.10;1.27;;;19.00;99.90;;;;;;4955169;29;20340;-74
2023/07/01 19:09:57;;;;;;;4.87;1.20;;;18.80;99.90;;;;;;4953367;28;20294;-74
2023/07/01 19:12:26;;;;;;;4.07;1.40;;;18.80;99.90;;;;;;4954138;29;20290;-74
2023/07/01 19:14:52;;;;;;;2.57;1.27;;;18.80;99.90;;;;;;4951203;28;20212;-73
2023/07/01 19:17:19;;;;;;;3.83;1.30;;;18.80;99.90;;;;;;4956985;29;20239;-75
2023/07/01 19:19:46;;;;;;;2.63;1.20;;;18.80;99.90;;;;;;4962144;28;20203;-74
2023/07/01 19:22:19;;;;;;;3.03;1.20;;;18.70;99.90;;;;;;4956969;28;20200;-75
2023/07/01 19:24:50;;;;;;;2.57;1.27;;;18.70;99.90;;;;;;4961999;28;20216;-74
2023/07/01 19:27:18;;;;;;;3.77;1.40;;;18.80;99.90;;;;;;4957161;28;20232;-74
2023/07/01 19:29:47;;;;;;;2.17;1.30;;;18.80;99.90;;;;;;4963865;28;20578;-75
2023/07/01 19:32:14;;;;;;;3.27;1.37;;;18.80;99.90;;;;;;4953152;28;20204;-73
2023/07/01 19:34:41;;;;;;;2.67;1.10;;;18.80;99.90;;;;;;4944625;29;20209;-74
2023/07/01 19:37:08;;;;;;;3.33;1.40;;;18.80;99.90;;;;;;4950576;28;20236;-74
2023/07/01 19:39:35;;;;;;;3.67;1.50;;;18.80;99.90;;;;;;4956597;28;20200;-74
2023/07/01 19:42:02;;;;;;;3.87;1.50;;;18.80;99.90;;;;;;4951286;28;20231;-74
2023/07/01 19:44:30;;;;;;;2.30;1.40;;;18.80;99.90;;;;;;4953575;28;20208;-74
2023/07/01 19:46:58;;;;;;;3.30;1.40;;;18.80;99.90;;;;;;4950295;28;20224;-74
2023/07/01 19:49:25;;;;;;;2.90;1.27;;;18.90;99.90;;;;;;4956515;28;20735;-74
2023/07/01 19:51:51;;;;;;;2.43;1.30;;;18.80;99.90;;;;;;4951573;28;20579;-73
2023/07/01 19:54:18;;;;;;;3.63;1.63;;;18.90;99.90;;;;;;4956634;28;20215;-75
2023/07/01 19:56:45;;;;;;;8.17;1.90;;;18.90;99.90;;;;;;4947678;28;20248;-73
2023/07/01 19:59:12;;;;;;;2.53;1.17;;;19.00;99.90;;;;;;4956374;28;20212;-73
2023/07/01 20:01:39;;;;;;;2.10;1.10;;;19.00;99.90;;;;;;4944919;29;20208;-73
2023/07/01 20:04:07;;;;;;;3.53;1.60;;;19.00;99.90;;;;;;4954903;28;20211;-73
2023/07/01 20:06:34;;;;;;;2.83;1.30;;;19.00;99.90;;;;;;4950309;28;20221;-73
2023/07/01 20:09:00;;;;;;;2.67;1.23;;;19.00;99.90;;;;;;4950879;28;20226;-73
2023/07/01 20:11:27;;;;;;;3.10;1.40;;;19.00;99.90;;;;;;4946440;29;20208;-73
2023/07/01 20:13:54;;;;;;;2.73;1.30;;;18.90;99.90;;;;;;4954286;28;20219;-73
2023/07/01 20:16:21;;;;;;;5.00;2.20;;;18.90;99.90;;;;;;4948755;28;20232;-73
2023/07/01 20:18:48;;;;;;;4.97;1.40;;;19.00;99.90;;;;;;4954153;28;20215;-73
2023/07/01 20:21:16;;;;;;;3.37;1.40;;;19.00;99.90;;;;;;4956003;28;20318;-73
2023/07/01 20:23:43;;;;;;;3.77;1.37;;;19.10;99.90;;;;;;4952406;28;20210;-73
2023/07/01 20:26:09;;;;;;;3.97;1.63;;;19.00;99.90;;;;;;4954361;28;20677;-75
2023/07/01 20:28:36;;;;;;;3.27;1.37;;;18.90;99.90;;;;;;4950685;28;20228;-74
2023/07/01 20:31:03;;;;;;;4.27;1.70;;;19.00;99.90;;;;;;4952798;28;20666;-74
2023/07/01 20:33:30;;;;;;;6.63;2.20;;;18.90;99.90;;;;;;4955013;28;20214;-74
2023/07/01 20:35:57;;;;;;;3.53;1.57;;;18.90;99.90;;;;;;4954495;28;20631;-74
2023/07/01 20:38:26;;;;;;;3.63;1.50;;;18.90;99.90;;;;;;4951417;28;20243;-74
2023/07/01 20:40:52;;;;;;;4.10;1.87;;;18.90;99.90;;;;;;4953791;28;20212;-74
2023/07/01 20:43:19;;;;;;;5.07;1.90;;;18.90;99.90;;;;;;4950272;28;20215;-73
2023/07/01 20:45:46;;;;;;;3.30;1.40;;;18.90;99.90;;;;;;4955723;28;20235;-75
2023/07/01 20:48:13;;;;;;;5.13;1.70;;;18.90;99.90;;;;;;4959954;28;20659;-74
2023/07/01 20:50:40;;;;;;;8.17;1.80;;;18.90;99.90;;;;;;4956071;28;20219;-74
2023/07/01 20:53:07;;;;;;;4.50;2.00;;;18.80;99.90;;;;;;4963721;28;20266;-73
2023/07/01 20:55:35;;;;;;;6.43;1.73;;;18.70;99.90;;;;;;4956895;28;20226;-74
2023/07/01 20:58:02;;;;;;;3.37;2.00;;;18.80;99.90;;;;;;4956325;28;20236;-73
2023/07/01 21:00:29;;;;;;;3.58;1.92;;;18.70;99.90;;;;;;4957800;28;20200;-73
2023/07/01 21:02:56;;;;;;;4.17;2.37;;;18.80;99.90;;;;;;4957865;28;20208;-74
2023/07/01 21:05:22;;;;;;;5.93;1.97;;;18.80;99.90;;;;;;4955745;28;20208;-73
2023/07/01 21:07:49;;;;;;;5.43;2.20;;;18.70;99.90;;;;;;4955657;28;20216;-73
2023/07/01 21:10:16;;;;;;;8.93;2.40;;;18.70;99.90;;;;;;4955822;28;20218;-73
2023/07/01 21:12:44;;;;;;;7.77;2.27;;;18.60;99.90;;;;;;4955935;28;20208;-73
2023/07/01 21:15:11;;;;;;;4.93;2.10;;;18.70;99.90;;;;;;4956064;28;20590;-75
2023/07/01 21:17:38;;;;;;;8.97;2.70;;;18.70;99.90;;;;;;4943148;29;20235;-75
2023/07/01 21:20:05;;;;;;;7.27;2.63;;;18.60;99.90;;;;;;4954642;28;20222;-75
2023/07/01 21:22:34;;;;;;;6.83;3.20;;;18.60;99.90;;;;;;4943242;29;20200;-75
2023/07/01 21:25:00;;;;;;;6.63;2.47;;;18.50;99.90;;;;;;4955438;28;20219;-74
2023/07/01 21:27:57;;;;;;;6.33;2.73;;;18.50;99.90;;;;;;4955156;28;20228;-74
2023/07/01 21:30:28;;;;;;;8.50;3.27;;;18.40;99.90;;;;;;4954941;28;20644;-75
2023/07/01 21:32:55;;;;;;;8.37;2.90;;;18.40;99.90;;;;;;4955584;28;20212;-74
2023/07/01 21:35:28;;;;;;;9.30;3.10;;;18.40;99.90;;;;;;4956332;28;20208;-75
2023/07/01 21:37:55;;;;;;;6.17;2.80;;;18.40;99.90;;;;;;4955306;28;20246;-74
2023/07/01 21:40:27;;;;;;;6.07;2.83;;;18.40;99.90;;;;;;4936449;29;20727;-74
2023/07/01 21:42:58;;;;;;;6.57;2.73;;;18.40;99.90;;;;;;4949474;29;20299;-74
2023/07/01 21:45:29;;;;;;;10.60;3.60;;;18.50;99.90;;;;;;4954202;28;20348;-74
